Terminal Aerodrome Forecast
Issued by NWS

Home | Current Version | Previous Version | Text Only | Print | Product List | Glossary On
Versions: 1 2 3 4 5 6 7 8 9 10 11 12 13 14 15 16
000
FTUS45 KABQ 020200 AAA
TAFGUP
TAF AMD
KGUP 020218Z 0202/0224 09011KT P6SM VCTS SCT060CB OVC100
      TEMPO 0202/0204 -SHRA BKN060
     FM020400 VRB04KT P6SM SCT070 BKN120
     FM021800 16008KT P6SM FEW060 SCT120
     FM022000 14010KT P6SM VCTS SCT060CB BKN120=

USA.gov is the U.S. government's official web portal to all federal, state and local government web resources and services.